Time;durP1;ratioP1;P1;durP2;ratioP2;P2;SDS_P1;SDS_P2;PMS_P1;PMS_P2;Temp;Humidity;BMP_temperature;BMP_pressure;BME280_temperature;BME280_humidity;BME280_pressure;Samples;Min_cycle;Max_cycle;Signal;HPM_P1;HPM_P2
2023/10/31 00:02:21;;;;;;;2.28;1.45;;;;;;;;;;5044379;28;20049;-74
2023/10/31 00:04:52;;;;;;;3.17;1.90;;;;;;;;;;5046178;28;20037;-74
2023/10/31 00:07:23;;;;;;;3.42;1.88;;;;;;;;;;5046009;28;20523;-76
2023/10/31 00:09:53;;;;;;;3.90;1.67;;;;;;;;;;5045274;28;20041;-72
2023/10/31 00:12:24;;;;;;;3.78;2.03;;;;;;;;;;5045886;28;20582;-75
2023/10/31 00:14:56;;;;;;;2.60;1.75;;;;;;;;;;5046139;28;20049;-75
2023/10/31 00:17:27;;;;;;;3.42;1.65;;;;;;;;;;5011363;28;20057;-76
2023/10/31 00:19:57;;;;;;;3.20;1.80;;;;;;;;;;5045272;28;20057;-73
2023/10/31 00:22:29;;;;;;;3.30;1.88;;;;;;;;;;5045032;28;20068;-74
2023/10/31 00:25:00;;;;;;;5.30;2.05;;;;;;;;;;5045968;28;20041;-74
2023/10/31 00:27:31;;;;;;;5.80;2.25;;;;;;;;;;5045865;28;20041;-75
2023/10/31 00:30:02;;;;;;;4.13;2.40;;;;;;;;;;5045018;28;20048;-73
2023/10/31 00:32:35;;;;;;;2.65;1.98;;;;;;;;;;5045078;28;20045;-74
2023/10/31 00:35:07;;;;;;;5.32;2.05;;;;;;;;;;5044901;28;20624;-74
2023/10/31 00:37:41;;;;;;;4.15;2.28;;;;;;;;;;5045556;28;20064;-77
2023/10/31 00:40:13;;;;;;;3.35;1.95;;;;;;;;;;5045497;28;20418;-77
2023/10/31 00:42:44;;;;;;;2.20;1.55;;;;;;;;;;5045887;28;20046;-73
2023/10/31 00:45:16;;;;;;;1.05;0.80;;;;;;;;;;5010295;28;20064;-74
2023/10/31 00:47:46;;;;;;;0.43;0.43;;;;;;;;;;5027068;28;20053;-75
2023/10/31 00:50:16;;;;;;;0.82;0.40;;;;;;;;;;5045389;28;20044;-76
2023/10/31 00:52:47;;;;;;;6.88;1.27;;;;;;;;;;5045213;28;20045;-75
2023/10/31 00:55:18;;;;;;;1.35;0.70;;;;;;;;;;5044690;28;20674;-75
2023/10/31 00:57:48;;;;;;;4.15;0.30;;;;;;;;;;5044826;28;20037;-76
2023/10/31 01:00:19;;;;;;;4.28;0.52;;;;;;;;;;5043004;28;20408;-75
2023/10/31 01:02:50;;;;;;;0.45;0.28;;;;;;;;;;5041474;28;20052;-75
2023/10/31 01:05:22;;;;;;;1.75;0.40;;;;;;;;;;5025149;28;20104;-75
2023/10/31 01:07:56;;;;;;;2.67;0.20;;;;;;;;;;5044986;28;20056;-76
2023/10/31 01:10:27;;;;;;;2.83;0.35;;;;;;;;;;5045113;28;20071;-74
2023/10/31 01:12:57;;;;;;;0.13;0.13;;;;;;;;;;5044847;28;20049;-76
2023/10/31 01:15:29;;;;;;;6.90;0.30;;;;;;;;;;5044615;28;20041;-74
2023/10/31 01:18:00;;;;;;;1.27;0.50;;;;;;;;;;5044984;28;20052;-76
2023/10/31 01:20:30;;;;;;;0.85;0.30;;;;;;;;;;5026123;28;20057;-76
2023/10/31 01:23:01;;;;;;;2.05;0.40;;;;;;;;;;5044342;28;20048;-76
2023/10/31 01:25:33;;;;;;;0.30;0.30;;;;;;;;;;5045770;28;20048;-76
2023/10/31 01:28:04;;;;;;;0.30;0.30;;;;;;;;;;5045237;28;20352;-75
2023/10/31 01:30:35;;;;;;;1.35;0.30;;;;;;;;;;5044445;28;20041;-74
2023/10/31 01:33:06;;;;;;;0.20;0.20;;;;;;;;;;5043892;28;20487;-73
2023/10/31 01:35:38;;;;;;;0.50;0.43;;;;;;;;;;5032405;28;20526;-75
2023/10/31 01:38:08;;;;;;;1.10;0.35;;;;;;;;;;5032262;28;20053;-74
2023/10/31 01:40:40;;;;;;;0.40;0.40;;;;;;;;;;5025513;28;20045;-74
2023/10/31 01:43:11;;;;;;;0.82;0.45;;;;;;;;;;5023799;28;20064;-75
2023/10/31 01:45:42;;;;;;;0.17;0.17;;;;;;;;;;5005626;28;20053;-75
2023/10/31 01:48:12;;;;;;;0.32;0.30;;;;;;;;;;5024128;28;20494;-75
2023/10/31 01:50:43;;;;;;;0.30;0.20;;;;;;;;;;5006015;28;20509;-77
2023/10/31 01:53:13;;;;;;;0.57;0.30;;;;;;;;;;5023924;28;20045;-76
2023/10/31 01:55:47;;;;;;;0.40;0.38;;;;;;;;;;5006712;28;20045;-77
2023/10/31 01:58:21;;;;;;;0.35;0.35;;;;;;;;;;5006426;28;20053;-75
2023/10/31 02:00:52;;;;;;;1.55;0.77;;;;;;;;;;5006063;28;20037;-76
2023/10/31 02:03:22;;;;;;;0.60;0.50;;;;;;;;;;5005880;28;20049;-74
2023/10/31 02:05:54;;;;;;;3.33;0.50;;;;;;;;;;5023905;28;20038;-75
2023/10/31 02:08:26;;;;;;;0.52;0.52;;;;;;;;;;4989996;28;20057;-74
2023/10/31 02:10:56;;;;;;;0.65;0.40;;;;;;;;;;5005360;28;20056;-74
2023/10/31 02:13:27;;;;;;;0.80;0.75;;;;;;;;;;5005625;28;20049;-73
2023/10/31 02:15:58;;;;;;;0.63;0.63;;;;;;;;;;5005756;28;20523;-76
2023/10/31 02:18:28;;;;;;;1.88;0.68;;;;;;;;;;5023122;28;20060;-74
2023/10/31 02:20:59;;;;;;;0.90;0.60;;;;;;;;;;5005013;28;20836;-76
2023/10/31 02:23:29;;;;;;;0.52;0.52;;;;;;;;;;5005192;28;20666;-76
2023/10/31 02:26:00;;;;;;;1.35;0.90;;;;;;;;;;5023813;28;20045;-74
2023/10/31 02:28:31;;;;;;;3.60;1.00;;;;;;;;;;5023515;28;20080;-76
2023/10/31 02:31:02;;;;;;;1.95;1.00;;;;;;;;;;5005525;28;20079;-75
2023/10/31 02:33:32;;;;;;;2.60;1.00;;;;;;;;;;5022519;28;20041;-77
2023/10/31 02:36:03;;;;;;;0.65;0.65;;;;;;;;;;5023359;28;20045;-77
2023/10/31 02:38:33;;;;;;;1.25;0.80;;;;;;;;;;5023419;28;21029;-75
2023/10/31 02:41:04;;;;;;;1.35;0.95;;;;;;;;;;5023979;28;20037;-75
2023/10/31 02:43:34;;;;;;;2.08;1.20;;;;;;;;;;5022878;28;20038;-76
2023/10/31 02:46:04;;;;;;;2.83;1.45;;;;;;;;;;5023112;28;20045;-77
2023/10/31 02:48:39;;;;;;;1.83;1.10;;;;;;;;;;5023181;28;20038;-75
2023/10/31 02:51:11;;;;;;;5.35;1.30;;;;;;;;;;5022368;28;20045;-75
2023/10/31 02:53:41;;;;;;;2.58;1.40;;;;;;;;;;5022894;28;20045;-73
2023/10/31 02:56:12;;;;;;;1.95;1.50;;;;;;;;;;5022825;28;20048;-75
2023/10/31 02:58:43;;;;;;;5.07;1.33;;;;;;;;;;5022355;28;20041;-74
2023/10/31 03:01:14;;;;;;;1.58;1.40;;;;;;;;;;5004634;28;20511;-74
2023/10/31 03:03:46;;;;;;;1.90;1.45;;;;;;;;;;5022530;28;20037;-74
2023/10/31 03:06:16;;;;;;;2.10;1.58;;;;;;;;;;5004755;28;20060;-75
2023/10/31 03:08:47;;;;;;;2.20;1.80;;;;;;;;;;5022365;28;20607;-77
2023/10/31 03:11:22;;;;;;;2.22;1.60;;;;;;;;;;5021745;28;20080;-74
2023/10/31 03:13:56;;;;;;;3.13;1.77;;;;;;;;;;5022752;28;20049;-75
2023/10/31 03:16:26;;;;;;;2.05;1.33;;;;;;;;;;5004456;28;20408;-74
2023/10/31 03:18:57;;;;;;;2.90;1.90;;;;;;;;;;5023240;28;20057;-75
2023/10/31 03:21:28;;;;;;;5.28;2.03;;;;;;;;;;5005302;28;20053;-75
2023/10/31 03:23:59;;;;;;;5.65;1.42;;;;;;;;;;5022799;28;20037;-76
2023/10/31 03:26:29;;;;;;;4.10;1.60;;;;;;;;;;5021558;28;20068;-74
2023/10/31 03:29:01;;;;;;;3.55;1.90;;;;;;;;;;5022787;28;20380;-74
2023/10/31 03:31:31;;;;;;;3.45;1.83;;;;;;;;;;5003608;28;20045;-73
2023/10/31 03:34:02;;;;;;;2.47;1.67;;;;;;;;;;5022111;28;20049;-76
2023/10/31 03:36:32;;;;;;;2.70;1.52;;;;;;;;;;5022491;28;20054;-73
2023/10/31 03:39:02;;;;;;;3.80;1.70;;;;;;;;;;5022655;28;20144;-75
2023/10/31 03:41:33;;;;;;;2.42;1.60;;;;;;;;;;5022392;28;20045;-75
2023/10/31 03:44:05;;;;;;;2.70;1.55;;;;;;;;;;5022245;28;20041;-74
2023/10/31 03:46:35;;;;;;;3.90;1.98;;;;;;;;;;5003865;28;20049;-75
2023/10/31 03:49:07;;;;;;;2.40;1.73;;;;;;;;;;5022363;28;20049;-74
2023/10/31 03:51:38;;;;;;;3.70;1.65;;;;;;;;;;5022808;28;20083;-74
2023/10/31 03:54:12;;;;;;;2.58;1.55;;;;;;;;;;5022765;28;20060;-73
2023/10/31 03:56:43;;;;;;;4.82;1.77;;;;;;;;;;5004740;28;20042;-76
2023/10/31 03:59:14;;;;;;;3.28;1.20;;;;;;;;;;5022249;28;20048;-73
2023/10/31 04:01:45;;;;;;;4.70;1.63;;;;;;;;;;5004466;28;20057;-74
2023/10/31 04:04:17;;;;;;;3.30;1.42;;;;;;;;;;5022125;28;20049;-75
2023/10/31 04:06:47;;;;;;;3.30;1.42;;;;;;;;;;5022186;28;20052;-75
2023/10/31 04:09:17;;;;;;;2.92;1.63;;;;;;;;;;5004524;28;20054;-74
2023/10/31 04:11:49;;;;;;;2.58;1.55;;;;;;;;;;5021942;28;20045;-74
2023/10/31 04:14:19;;;;;;;2.05;1.60;;;;;;;;;;5021749;28;20037;-75
2023/10/31 04:16:50;;;;;;;2.50;1.60;;;;;;;;;;5021776;28;20057;-73
2023/10/31 04:19:20;;;;;;;4.40;1.60;;;;;;;;;;5022020;28;20057;-74
2023/10/31 04:21:50;;;;;;;3.78;1.55;;;;;;;;;;5022468;28;20445;-74
2023/10/31 04:24:21;;;;;;;5.05;1.60;;;;;;;;;;5022451;28;20049;-75
2023/10/31 04:26:51;;;;;;;3.17;1.30;;;;;;;;;;5022060;28;21097;-75
2023/10/31 04:29:21;;;;;;;3.50;1.42;;;;;;;;;;5021593;28;20037;-75
2023/10/31 04:31:53;;;;;;;1.73;1.42;;;;;;;;;;5004922;28;20036;-73
2023/10/31 04:34:23;;;;;;;2.63;1.58;;;;;;;;;;5022300;28;20765;-75
2023/10/31 04:36:54;;;;;;;2.83;1.27;;;;;;;;;;5025560;28;20046;-75
2023/10/31 04:39:25;;;;;;;5.25;1.52;;;;;;;;;;5025324;28;20042;-76
2023/10/31 04:41:55;;;;;;;2.70;1.10;;;;;;;;;;5025959;28;20044;-75
2023/10/31 04:44:26;;;;;;;2.70;1.33;;;;;;;;;;5024832;28;20045;-74
2023/10/31 04:46:59;;;;;;;3.25;1.38;;;;;;;;;;5024421;28;20100;-74
2023/10/31 04:49:30;;;;;;;2.50;1.52;;;;;;;;;;5025699;28;20041;-73
2023/10/31 04:52:00;;;;;;;3.42;1.38;;;;;;;;;;5025220;28;20067;-75
2023/10/31 04:54:30;;;;;;;1.77;1.38;;;;;;;;;;5025450;28;20041;-75
2023/10/31 04:57:01;;;;;;;2.50;1.70;;;;;;;;;;5024974;28;20057;-72
2023/10/31 04:59:31;;;;;;;3.88;1.50;;;;;;;;;;5025452;28;20045;-75
2023/10/31 05:02:01;;;;;;;2.47;1.35;;;;;;;;;;5024604;28;20053;-73
2023/10/31 05:04:32;;;;;;;2.72;1.35;;;;;;;;;;5024661;28;20401;-75
2023/10/31 05:07:02;;;;;;;2.20;1.33;;;;;;;;;;5025353;28;20377;-75
2023/10/31 05:09:32;;;;;;;1.58;1.30;;;;;;;;;;5025667;28;20052;-75
2023/10/31 05:12:03;;;;;;;4.47;1.48;;;;;;;;;;5024521;28;20046;-73
2023/10/31 05:14:34;;;;;;;1.38;1.20;;;;;;;;;;5024807;28;20037;-74
2023/10/31 05:17:05;;;;;;;2.03;1.30;;;;;;;;;;5024372;28;20056;-73
2023/10/31 05:19:36;;;;;;;2.63;1.30;;;;;;;;;;5024990;28;20064;-73
2023/10/31 05:22:06;;;;;;;4.20;1.42;;;;;;;;;;5024522;28;20436;-74
2023/10/31 05:24:37;;;;;;;2.30;1.52;;;;;;;;;;5024244;28;20041;-74
2023/10/31 05:27:09;;;;;;;4.35;1.33;;;;;;;;;;5024500;28;20054;-75
2023/10/31 05:29:42;;;;;;;6.10;1.50;;;;;;;;;;5024321;28;20049;-73
2023/10/31 05:32:13;;;;;;;2.03;1.38;;;;;;;;;;5024841;28;20046;-76
2023/10/31 05:34:43;;;;;;;4.55;1.42;;;;;;;;;;5024245;28;20489;-76
2023/10/31 05:37:14;;;;;;;2.38;1.45;;;;;;;;;;5023771;28;20041;-76
2023/10/31 05:39:45;;;;;;;4.75;1.40;;;;;;;;;;5024412;28;20485;-75
2023/10/31 05:42:15;;;;;;;4.30;1.55;;;;;;;;;;5024258;28;20046;-74
2023/10/31 05:44:45;;;;;;;5.82;1.27;;;;;;;;;;5024369;28;20052;-72
2023/10/31 05:47:16;;;;;;;1.88;1.40;;;;;;;;;;5023819;28;20045;-76
2023/10/31 05:49:47;;;;;;;2.28;1.48;;;;;;;;;;5024680;28;20046;-74
2023/10/31 05:52:17;;;;;;;4.93;1.77;;;;;;;;;;5024028;28;20038;-73
2023/10/31 05:54:47;;;;;;;3.67;1.42;;;;;;;;;;5024074;28;20046;-74
2023/10/31 05:57:19;;;;;;;3.78;1.33;;;;;;;;;;5023735;28;20735;-75
2023/10/31 05:59:49;;;;;;;2.53;1.13;;;;;;;;;;5005366;28;20053;-74
2023/10/31 06:02:20;;;;;;;2.35;1.23;;;;;;;;;;5024421;28;20046;-75
2023/10/31 06:04:50;;;;;;;1.50;1.05;;;;;;;;;;5024124;28;20041;-73
2023/10/31 06:07:21;;;;;;;2.83;1.40;;;;;;;;;;5005508;28;20625;-75
2023/10/31 06:09:52;;;;;;;4.00;1.48;;;;;;;;;;5023723;28;20037;-73
2023/10/31 06:12:22;;;;;;;2.20;1.52;;;;;;;;;;5023552;28;20401;-73
2023/10/31 06:14:52;;;;;;;1.45;1.10;;;;;;;;;;5022803;28;20839;-76
2023/10/31 06:17:23;;;;;;;2.47;1.40;;;;;;;;;;5024250;28;20403;-74
2023/10/31 06:19:54;;;;;;;4.75;1.50;;;;;;;;;;5024292;28;20060;-75
2023/10/31 06:22:24;;;;;;;2.20;1.58;;;;;;;;;;5024589;28;20056;-74
2023/10/31 06:24:54;;;;;;;2.05;1.45;;;;;;;;;;5023180;28;20041;-75
2023/10/31 06:27:25;;;;;;;3.95;1.33;;;;;;;;;;5005977;28;20049;-76
2023/10/31 06:29:55;;;;;;;4.18;1.70;;;;;;;;;;5023526;28;20049;-75
2023/10/31 06:32:47;;;;;;;3.88;1.35;;;;;;;;;;5023462;28;20579;-74
2023/10/31 06:35:17;;;;;;;3.00;1.25;;;;;;;;;;5005945;28;20045;-73
2023/10/31 06:37:48;;;;;;;3.08;1.20;;;;;;;;;;5023047;28;20052;-75
2023/10/31 06:40:18;;;;;;;5.47;1.42;;;;;;;;;;5022862;28;20037;-74
2023/10/31 06:42:49;;;;;;;1.92;1.40;;;;;;;;;;5022146;28;20504;-76
2023/10/31 06:45:20;;;;;;;5.53;1.83;;;;;;;;;;5023780;28;20049;-72
2023/10/31 06:47:50;;;;;;;3.65;1.40;;;;;;;;;;5023121;28;20528;-74
2023/10/31 06:50:21;;;;;;;3.30;1.35;;;;;;;;;;5023596;28;20048;-75
2023/10/31 06:52:52;;;;;;;2.80;1.23;;;;;;;;;;5023393;28;20103;-75
2023/10/31 06:55:23;;;;;;;3.72;1.35;;;;;;;;;;5023268;28;20049;-73
2023/10/31 06:57:53;;;;;;;2.83;1.58;;;;;;;;;;5022289;28;20418;-74
2023/10/31 07:00:23;;;;;;;2.17;1.25;;;;;;;;;;5022770;28;20369;-75
2023/10/31 07:02:54;;;;;;;1.90;1.40;;;;;;;;;;5022605;28;20395;-75
2023/10/31 07:05:25;;;;;;;5.00;1.40;;;;;;;;;;5005040;28;20496;-73
2023/10/31 07:07:55;;;;;;;3.15;1.33;;;;;;;;;;5023038;28;20045;-75
2023/10/31 07:10:27;;;;;;;3.65;1.50;;;;;;;;;;5022440;28;20041;-74
2023/10/31 07:12:58;;;;;;;4.43;1.52;;;;;;;;;;5022900;28;20044;-72
2023/10/31 07:15:29;;;;;;;3.85;1.50;;;;;;;;;;5022479;28;20076;-74
2023/10/31 07:17:59;;;;;;;2.00;1.40;;;;;;;;;;5022662;28;20041;-73
2023/10/31 07:20:31;;;;;;;3.03;1.67;;;;;;;;;;5022271;28;20068;-73
2023/10/31 07:23:02;;;;;;;3.17;1.30;;;;;;;;;;5022124;28;20045;-74
2023/10/31 07:25:33;;;;;;;5.65;1.40;;;;;;;;;;5022995;28;20052;-75
2023/10/31 07:28:03;;;;;;;5.43;1.77;;;;;;;;;;5022476;28;20037;-74
2023/10/31 07:30:33;;;;;;;4.38;1.27;;;;;;;;;;5022211;28;20058;-74
2023/10/31 07:33:03;;;;;;;3.55;1.70;;;;;;;;;;5022270;28;20053;-74
2023/10/31 07:35:35;;;;;;;3.38;1.80;;;;;;;;;;5005153;28;20049;-75
2023/10/31 07:38:05;;;;;;;3.38;1.52;;;;;;;;;;5022147;28;20042;-75
2023/10/31 07:40:37;;;;;;;3.67;1.58;;;;;;;;;;5005348;28;20045;-73
2023/10/31 07:43:06;;;;;;;4.95;1.58;;;;;;;;;;5022571;28;20041;-76
2023/10/31 07:45:38;;;;;;;1.52;1.23;;;;;;;;;;5022975;28;20041;-74
2023/10/31 07:48:09;;;;;;;3.03;1.70;;;;;;;;;;5004372;28;20052;-73
2023/10/31 07:50:41;;;;;;;3.67;1.65;;;;;;;;;;5021755;28;20045;-75
2023/10/31 07:53:11;;;;;;;4.53;1.70;;;;;;;;;;5022212;28;20033;-76
2023/10/31 07:55:43;;;;;;;2.40;1.58;;;;;;;;;;5021611;28;20056;-74
2023/10/31 07:58:13;;;;;;;2.88;1.58;;;;;;;;;;5021906;28;20060;-73
2023/10/31 08:00:45;;;;;;;6.10;1.42;;;;;;;;;;5003822;28;20057;-75
2023/10/31 08:03:15;;;;;;;8.85;1.65;;;;;;;;;;5021814;28;20048;-73
2023/10/31 08:05:46;;;;;;;3.47;1.60;;;;;;;;;;5022057;28;20503;-74
2023/10/31 08:08:17;;;;;;;4.75;1.67;;;;;;;;;;5022115;28;20372;-75
2023/10/31 08:10:48;;;;;;;4.45;1.95;;;;;;;;;;5024591;28;20613;-73
2023/10/31 08:13:18;;;;;;;1.73;1.23;;;;;;;;;;5025740;28;20037;-75
2023/10/31 08:15:49;;;;;;;4.70;1.42;;;;;;;;;;5026278;28;20053;-73
2023/10/31 08:18:20;;;;;;;4.57;1.50;;;;;;;;;;5008458;28;20041;-75
2023/10/31 08:20:50;;;;;;;2.55;1.48;;;;;;;;;;5008318;28;20053;-75
2023/10/31 08:23:20;;;;;;;8.88;1.70;;;;;;;;;;5025587;28;20045;-74
2023/10/31 08:25:52;;;;;;;1.90;1.50;;;;;;;;;;5025809;28;20045;-76
2023/10/31 08:28:24;;;;;;;2.17;1.30;;;;;;;;;;5025844;28;20057;-76
2023/10/31 08:30:55;;;;;;;1.40;1.05;;;;;;;;;;5025639;28;20053;-76
2023/10/31 08:33:24;;;;;;;1.95;1.20;;;;;;;;;;5025615;28;20061;-74
2023/10/31 08:35:56;;;;;;;1.27;1.05;;;;;;;;;;5025458;28;20361;-73
2023/10/31 08:38:28;;;;;;;1.80;1.20;;;;;;;;;;5025258;28;20077;-75
2023/10/31 08:41:01;;;;;;;1.48;0.98;;;;;;;;;;5008237;28;20041;-75
2023/10/31 08:43:31;;;;;;;4.95;1.00;;;;;;;;;;5025454;28;20048;-75
2023/10/31 08:46:02;;;;;;;1.45;0.88;;;;;;;;;;5025745;28;20045;-73
2023/10/31 08:48:33;;;;;;;4.03;1.10;;;;;;;;;;5025337;28;20037;-74
2023/10/31 08:51:05;;;;;;;5.13;0.93;;;;;;;;;;5025616;28;20412;-74
2023/10/31 08:53:35;;;;;;;3.13;1.08;;;;;;;;;;5025211;28;20398;-75
2023/10/31 08:56:07;;;;;;;2.42;1.20;;;;;;;;;;5006889;28;20060;-75
2023/10/31 08:58:38;;;;;;;3.17;1.08;;;;;;;;;;5025089;28;20772;-77
2023/10/31 09:01:08;;;;;;;3.05;1.05;;;;;;;;;;5024748;28;20041;-75
2023/10/31 09:03:38;;;;;;;1.42;0.98;;;;;;;;;;5007194;28;20500;-74
2023/10/31 09:06:09;;;;;;;1.35;1.00;;;;;;;;;;5025045;28;20052;-73
2023/10/31 09:08:39;;;;;;;4.13;1.10;;;;;;;;;;5007458;28;20499;-75
2023/10/31 09:11:10;;;;;;;4.97;1.05;;;;;;;;;;5025164;28;20946;-74
2023/10/31 09:13:40;;;;;;;2.70;1.40;;;;;;;;;;5024732;28;20051;-75
2023/10/31 09:16:10;;;;;;;2.13;1.15;;;;;;;;;;5025077;28;20049;-75
2023/10/31 09:18:43;;;;;;;6.85;1.23;;;;;;;;;;5024705;28;20053;-75
2023/10/31 09:21:14;;;;;;;2.97;1.10;;;;;;;;;;5023679;28;20424;-72
2023/10/31 09:23:44;;;;;;;2.08;1.15;;;;;;;;;;5024967;28;20400;-74
2023/10/31 09:26:14;;;;;;;4.90;1.23;;;;;;;;;;5024850;28;20053;-76
2023/10/31 09:28:49;;;;;;;2.65;1.13;;;;;;;;;;5024185;28;20045;-76
2023/10/31 09:31:20;;;;;;;6.50;1.88;;;;;;;;;;5006760;28;20053;-73
2023/10/31 09:33:50;;;;;;;2.47;1.25;;;;;;;;;;5024635;28;20095;-76
2023/10/31 09:36:21;;;;;;;3.35;1.05;;;;;;;;;;5024386;28;20492;-73
2023/10/31 09:38:51;;;;;;;4.30;1.25;;;;;;;;;;5024313;28;20460;-76
2023/10/31 09:41:22;;;;;;;2.20;1.15;;;;;;;;;;5025008;28;20054;-82
2023/10/31 09:43:53;;;;;;;3.22;1.20;;;;;;;;;;5024493;28;20050;-79
2023/10/31 09:46:23;;;;;;;2.03;1.15;;;;;;;;;;5024403;28;20049;-75
2023/10/31 09:48:54;;;;;;;2.15;0.90;;;;;;;;;;5024321;28;20503;-76
2023/10/31 09:51:25;;;;;;;4.28;1.00;;;;;;;;;;5023836;28;20056;-74
2023/10/31 09:53:57;;;;;;;4.18;0.93;;;;;;;;;;5024284;28;20049;-78
2023/10/31 09:56:34;;;;;;;3.35;0.98;;;;;;;;;;5024078;28;20049;-74
2023/10/31 09:59:05;;;;;;;2.33;1.10;;;;;;;;;;5024142;28;20077;-77
2023/10/31 10:01:36;;;;;;;3.58;1.10;;;;;;;;;;5023924;28;20052;-74
2023/10/31 10:04:07;;;;;;;4.40;1.42;;;;;;;;;;5023842;28;20038;-73
2023/10/31 10:07:08;;;;;;;2.05;1.10;;;;;;;;;;5005955;28;20054;-74
2023/10/31 10:09:38;;;;;;;2.13;1.00;;;;;;;;;;5024918;28;20514;-74
2023/10/31 10:12:11;;;;;;;3.72;1.02;;;;;;;;;;5024239;28;20045;-74
2023/10/31 10:14:43;;;;;;;2.72;1.15;;;;;;;;;;5005977;28;20151;-76
2023/10/31 10:17:22;;;;;;;1.35;1.00;;;;;;;;;;5023175;28;20056;-73
2023/10/31 10:20:11;;;;;;;2.35;0.90;;;;;;;;;;5023101;28;20481;-79
2023/10/31 10:22:42;;;;;;;3.60;0.80;;;;;;;;;;5023274;28;20041;-75
2023/10/31 10:25:17;;;;;;;1.98;0.88;;;;;;;;;;5023201;28;20038;-80
2023/10/31 10:27:48;;;;;;;2.03;0.88;;;;;;;;;;5023594;28;20090;-83
2023/10/31 10:30:19;;;;;;;3.35;0.90;;;;;;;;;;5023314;28;20042;-75
2023/10/31 10:32:53;;;;;;;1.83;0.77;;;;;;;;;;5022756;28;20396;-75
2023/10/31 10:35:24;;;;;;;4.35;0.85;;;;;;;;;;5023307;28;20041;-77
2023/10/31 10:37:56;;;;;;;2.28;0.88;;;;;;;;;;5023198;28;20144;-75
2023/10/31 10:40:27;;;;;;;2.97;0.65;;;;;;;;;;5022827;28;20052;-75
2023/10/31 10:43:01;;;;;;;3.20;0.93;;;;;;;;;;5023921;28;20041;-75
2023/10/31 10:45:33;;;;;;;2.78;0.98;;;;;;;;;;5036870;28;20041;-77
2023/10/31 10:48:09;;;;;;;3.25;0.95;;;;;;;;;;5042967;28;20099;-78
2023/10/31 10:50:43;;;;;;;3.90;0.93;;;;;;;;;;5042959;28;20055;-73
2023/10/31 10:53:27;;;;;;;3.22;1.17;;;;;;;;;;5042751;28;20052;-76
2023/10/31 10:56:09;;;;;;;7.07;1.20;;;;;;;;;;5042702;28;20041;-76
2023/10/31 10:58:59;;;;;;;3.63;0.98;;;;;;;;;;5042895;28;20037;-74
2023/10/31 11:01:35;;;;;;;2.60;0.80;;;;;;;;;;5042411;28;20044;-79
2023/10/31 11:04:07;;;;;;;3.17;0.70;;;;;;;;;;5042025;28;20191;-79
2023/10/31 11:06:41;;;;;;;2.78;1.10;;;;;;;;;;5042635;28;20041;-74
2023/10/31 11:09:11;;;;;;;2.90;1.05;;;;;;;;;;5024037;28;20049;-73
2023/10/31 11:11:48;;;;;;;4.50;0.90;;;;;;;;;;5042713;28;20048;-75
2023/10/31 11:14:19;;;;;;;3.63;1.00;;;;;;;;;;5042393;28;20044;-76
2023/10/31 11:16:56;;;;;;;2.38;1.00;;;;;;;;;;5023064;28;20048;-73
2023/10/31 11:19:27;;;;;;;1.23;0.70;;;;;;;;;;5041958;28;20066;-78
2023/10/31 11:22:02;;;;;;;3.60;0.82;;;;;;;;;;5042567;28;20053;-73
2023/10/31 11:24:36;;;;;;;0.80;0.63;;;;;;;;;;5041980;28;20501;-73
2023/10/31 11:27:07;;;;;;;5.10;1.73;;;;;;;;;;5042294;28;20036;-73
2023/10/31 11:29:38;;;;;;;3.78;0.90;;;;;;;;;;5042399;28;20044;-76
2023/10/31 11:32:10;;;;;;;2.20;0.95;;;;;;;;;;5042254;28;20045;-74
2023/10/31 11:34:42;;;;;;;1.30;0.77;;;;;;;;;;5041805;28;20041;-75
2023/10/31 11:37:26;;;;;;;7.50;0.85;;;;;;;;;;5041067;28;20053;-73
2023/10/31 11:40:16;;;;;;;4.35;0.70;;;;;;;;;;5041508;28;20056;-73
2023/10/31 11:42:54;;;;;;;2.10;0.90;;;;;;;;;;5041606;28;20045;-74
2023/10/31 11:45:41;;;;;;;2.47;0.70;;;;;;;;;;5040890;28;20045;-74
2023/10/31 11:48:12;;;;;;;13.77;0.90;;;;;;;;;;5041979;28;20044;-74
2023/10/31 11:50:43;;;;;;;13.75;1.02;;;;;;;;;;5041407;28;20045;-75
2023/10/31 11:53:18;;;;;;;11.32;1.30;;;;;;;;;;5039288;28;20483;-75
2023/10/31 11:55:49;;;;;;;5.13;0.90;;;;;;;;;;5039657;28;20080;-74
2023/10/31 11:58:26;;;;;;;6.45;1.00;;;;;;;;;;5039593;28;20056;-81
2023/10/31 12:01:07;;;;;;;5.90;0.73;;;;;;;;;;5020814;28;20049;-75
2023/10/31 12:03:41;;;;;;;2.10;0.63;;;;;;;;;;5020639;28;20053;-74
2023/10/31 12:06:12;;;;;;;2.45;0.73;;;;;;;;;;5039530;28;20048;-74
2023/10/31 12:08:47;;;;;;;1.48;0.52;;;;;;;;;;5038828;28;20056;-73
2023/10/31 12:11:22;;;;;;;2.08;0.63;;;;;;;;;;5038701;28;20041;-78
2023/10/31 12:14:01;;;;;;;1.98;0.85;;;;;;;;;;5039343;28;20514;-73
2023/10/31 12:16:33;;;;;;;2.55;0.60;;;;;;;;;;5020752;28;20052;-74
2023/10/31 12:19:06;;;;;;;2.47;0.50;;;;;;;;;;5038781;28;20053;-74
2023/10/31 12:21:41;;;;;;;0.43;0.43;;;;;;;;;;5039100;28;20045;-76
2023/10/31 12:24:14;;;;;;;2.58;0.60;;;;;;;;;;5039346;28;20041;-73
2023/10/31 12:26:46;;;;;;;3.03;0.60;;;;;;;;;;5039151;28;20657;-74
2023/10/31 12:29:20;;;;;;;3.20;0.70;;;;;;;;;;5039139;28;20037;-76
2023/10/31 12:31:53;;;;;;;2.13;0.50;;;;;;;;;;5039599;28;20822;-75
2023/10/31 12:34:25;;;;;;;2.08;0.68;;;;;;;;;;5038021;28;20080;-75
2023/10/31 12:36:59;;;;;;;2.42;0.60;;;;;;;;;;5039111;28;20072;-74
2023/10/31 12:39:30;;;;;;;3.95;1.15;;;;;;;;;;5038819;28;20055;-76
2023/10/31 12:42:02;;;;;;;2.17;0.40;;;;;;;;;;5038743;28;20395;-73
2023/10/31 12:44:34;;;;;;;2.90;0.68;;;;;;;;;;5038989;28;20041;-74
2023/10/31 12:47:08;;;;;;;1.73;0.52;;;;;;;;;;5038831;28;20056;-73
2023/10/31 12:49:39;;;;;;;2.83;0.65;;;;;;;;;;5038690;28;20514;-75
2023/10/31 12:52:10;;;;;;;1.85;0.50;;;;;;;;;;5038666;28;20045;-77
2023/10/31 12:54:40;;;;;;;2.58;0.30;;;;;;;;;;5038636;28;20056;-74
2023/10/31 12:57:10;;;;;;;4.43;0.60;;;;;;;;;;5039930;28;20045;-74
2023/10/31 12:59:41;;;;;;;2.00;0.63;;;;;;;;;;5042182;28;20044;-75
2023/10/31 13:02:17;;;;;;;1.75;0.40;;;;;;;;;;5042355;28;20045;-75
2023/10/31 13:04:48;;;;;;;2.10;0.63;;;;;;;;;;5042224;28;20199;-77
2023/10/31 13:07:27;;;;;;;2.88;0.65;;;;;;;;;;5042301;28;20519;-75
2023/10/31 13:10:00;;;;;;;1.40;0.40;;;;;;;;;;5042194;28;20037;-75
2023/10/31 13:12:31;;;;;;;1.27;0.52;;;;;;;;;;5042309;28;20426;-73
2023/10/31 13:15:01;;;;;;;5.25;0.65;;;;;;;;;;5042778;28;20375;-77
2023/10/31 13:17:32;;;;;;;1.40;0.63;;;;;;;;;;5041543;28;20388;-76
2023/10/31 13:20:06;;;;;;;1.10;0.52;;;;;;;;;;5041785;28;20989;-74
2023/10/31 13:22:43;;;;;;;1.83;0.60;;;;;;;;;;5023076;28;20075;-75
2023/10/31 13:25:15;;;;;;;1.45;0.50;;;;;;;;;;5041482;28;20747;-79
2023/10/31 13:27:50;;;;;;;1.13;0.50;;;;;;;;;;5042171;28;20407;-76
2023/10/31 13:30:24;;;;;;;0.68;0.50;;;;;;;;;;5041618;28;20045;-74
2023/10/31 13:32:57;;;;;;;2.03;0.30;;;;;;;;;;5041314;28;20514;-73
2023/10/31 13:35:28;;;;;;;0.88;0.40;;;;;;;;;;5041618;28;20045;-73
2023/10/31 13:37:58;;;;;;;2.08;0.60;;;;;;;;;;5024443;28;20045;-73
2023/10/31 13:40:28;;;;;;;1.73;0.50;;;;;;;;;;5041494;28;20037;-77
2023/10/31 13:42:59;;;;;;;1.83;0.22;;;;;;;;;;5023776;28;20049;-75
2023/10/31 13:45:29;;;;;;;1.20;0.43;;;;;;;;;;5040795;28;20041;-75
2023/10/31 13:47:59;;;;;;;2.47;0.60;;;;;;;;;;5041845;28;20047;-75
2023/10/31 13:50:29;;;;;;;0.88;0.30;;;;;;;;;;5041790;28;20395;-73
2023/10/31 13:53:00;;;;;;;0.73;0.40;;;;;;;;;;5041780;28;20037;-75
2023/10/31 13:55:31;;;;;;;1.75;0.50;;;;;;;;;;5041428;28;20045;-74
2023/10/31 13:58:01;;;;;;;1.67;0.50;;;;;;;;;;5041352;28;20045;-75
2023/10/31 14:00:31;;;;;;;3.55;0.60;;;;;;;;;;5041317;28;20037;-75
2023/10/31 14:03:02;;;;;;;1.05;0.32;;;;;;;;;;5041300;28;20048;-76
2023/10/31 14:05:33;;;;;;;3.75;0.63;;;;;;;;;;5040862;28;20045;-72
2023/10/31 14:08:06;;;;;;;1.23;0.43;;;;;;;;;;5039983;28;20629;-74
2023/10/31 14:10:36;;;;;;;2.25;0.50;;;;;;;;;;5040878;28;20048;-75
2023/10/31 14:13:06;;;;;;;1.13;0.52;;;;;;;;;;5040859;28;20045;-72
2023/10/31 14:15:36;;;;;;;3.80;0.68;;;;;;;;;;5041013;28;20040;-75
2023/10/31 14:21:29;;;;;;;1.05;0.43;;;;;;;;;;5028909;28;20064;-75
2023/10/31 14:24:09;;;;;;;1.63;0.50;;;;;;;;;;5040718;28;20037;-74
2023/10/31 14:26:43;;;;;;;;;;;;;;;;;;5041494;28;20037;-74
2023/10/31 14:29:13;;;;;;;2.58;0.70;;;;;;;;;;5040933;28;20686;-73
2023/10/31 14:31:45;;;;;;;1.95;0.43;;;;;;;;;;5041031;28;20044;-72
2023/10/31 14:34:15;;;;;;;2.33;0.50;;;;;;;;;;5040919;28;20041;-75
2023/10/31 14:36:45;;;;;;;3.80;0.52;;;;;;;;;;5040154;28;20041;-73
2023/10/31 14:39:15;;;;;;;4.05;0.65;;;;;;;;;;5040477;28;20490;-75
2023/10/31 14:41:46;;;;;;;1.00;0.40;;;;;;;;;;5040277;28;20040;-76
2023/10/31 14:44:18;;;;;;;1.15;0.40;;;;;;;;;;5040693;28;20041;-74
2023/10/31 14:46:48;;;;;;;0.82;0.43;;;;;;;;;;5043064;28;20495;-77
2023/10/31 14:49:18;;;;;;;0.85;0.43;;;;;;;;;;5043773;28;20045;-75
2023/10/31 14:51:56;;;;;;;0.43;0.30;;;;;;;;;;5042351;28;20064;-74
2023/10/31 14:54:26;;;;;;;2.00;0.80;;;;;;;;;;5042610;28;20037;-75
2023/10/31 14:56:57;;;;;;;0.80;0.40;;;;;;;;;;5042976;28;20048;-74
2023/10/31 14:59:29;;;;;;;1.65;0.40;;;;;;;;;;5042176;28;20052;-73
2023/10/31 15:01:59;;;;;;;1.70;0.40;;;;;;;;;;5042594;28;20049;-74
2023/10/31 15:04:31;;;;;;;1.55;0.50;;;;;;;;;;5043512;28;20056;-76
2023/10/31 15:07:02;;;;;;;2.13;0.52;;;;;;;;;;5042663;28;20041;-81
2023/10/31 15:09:36;;;;;;;1.63;0.50;;;;;;;;;;5042136;28;20037;-72
2023/10/31 15:12:07;;;;;;;2.58;0.40;;;;;;;;;;5042676;28;20481;-74
2023/10/31 15:14:37;;;;;;;2.05;0.55;;;;;;;;;;5042491;28;20045;-75